Terminal Aerodrome Forecast
Issued by NWS Twin Cities, MN

Home | Current Version | Previous Version | Text Only | Print | Product List | Glossary On
Versions: 1 2 3 4 5 6 7 8 9 10 11 12 13 14 15
000
FTUS43 KMPX 250520
TAFEAU
TAF
KEAU 250520Z 2506/2606 31008KT P6SM BKN035
     FM250900 31006KT P6SM BKN025
     FM251600 32011G17KT P6SM BKN040
     FM260000 33005KT P6SM SKC=

USA.gov is the U.S. government's official web portal to all federal, state and local government web resources and services.